sensor_id;sensor_type;location;lat;lon;timestamp;P1;durP1;ratioP1;P2;durP2;ratioP2
12707;SDS011;6418;50.824;4.718;2023-02-14T00:00:16;85.60;;;36.23;;
12707;SDS011;6418;50.824;4.718;2023-02-14T00:02:43;74.37;;;35.07;;
12707;SDS011;6418;50.824;4.718;2023-02-14T00:05:12;77.10;;;33.63;;
12707;SDS011;6418;50.824;4.718;2023-02-14T00:07:39;76.63;;;36.43;;
12707;SDS011;6418;50.824;4.718;2023-02-14T00:10:07;72.97;;;35.23;;
12707;SDS011;6418;50.824;4.718;2023-02-14T00:12:36;75.73;;;35.40;;
12707;SDS011;6418;50.824;4.718;2023-02-14T00:15:03;78.77;;;36.10;;
12707;SDS011;6418;50.824;4.718;2023-02-14T00:17:49;69.10;;;35.27;;
12707;SDS011;6418;50.824;4.718;2023-02-14T00:20:18;75.23;;;34.30;;
12707;SDS011;6418;50.824;4.718;2023-02-14T00:22:45;69.13;;;35.43;;
12707;SDS011;6418;50.824;4.718;2023-02-14T00:25:12;71.83;;;35.50;;
12707;SDS011;6418;50.824;4.718;2023-02-14T00:27:40;75.93;;;34.70;;
12707;SDS011;6418;50.824;4.718;2023-02-14T00:30:08;78.00;;;35.93;;
12707;SDS011;6418;50.824;4.718;2023-02-14T00:32:37;77.50;;;34.27;;
12707;SDS011;6418;50.824;4.718;2023-02-14T00:35:04;79.23;;;35.10;;
12707;SDS011;6418;50.824;4.718;2023-02-14T00:37:33;74.20;;;34.83;;
12707;SDS011;6418;50.824;4.718;2023-02-14T00:40:00;65.53;;;32.97;;
12707;SDS011;6418;50.824;4.718;2023-02-14T00:42:27;65.47;;;33.37;;
12707;SDS011;6418;50.824;4.718;2023-02-14T00:44:54;68.60;;;33.20;;
12707;SDS011;6418;50.824;4.718;2023-02-14T00:47:21;78.37;;;34.60;;
12707;SDS011;6418;50.824;4.718;2023-02-14T00:49:48;70.40;;;34.23;;
12707;SDS011;6418;50.824;4.718;2023-02-14T00:52:15;67.30;;;32.77;;
12707;SDS011;6418;50.824;4.718;2023-02-14T00:54:43;76.17;;;33.53;;
12707;SDS011;6418;50.824;4.718;2023-02-14T00:57:10;70.07;;;33.80;;
12707;SDS011;6418;50.824;4.718;2023-02-14T00:59:37;68.60;;;33.90;;
12707;SDS011;6418;50.824;4.718;2023-02-14T01:02:04;75.53;;;33.87;;
12707;SDS011;6418;50.824;4.718;2023-02-14T01:04:33;67.53;;;32.80;;
12707;SDS011;6418;50.824;4.718;2023-02-14T01:07:00;70.37;;;33.93;;
12707;SDS011;6418;50.824;4.718;2023-02-14T01:09:27;80.27;;;34.77;;
12707;SDS011;6418;50.824;4.718;2023-02-14T01:11:56;72.47;;;34.63;;
12707;SDS011;6418;50.824;4.718;2023-02-14T01:14:23;71.23;;;33.63;;
12707;SDS011;6418;50.824;4.718;2023-02-14T01:16:52;77.30;;;33.37;;
12707;SDS011;6418;50.824;4.718;2023-02-14T01:19:19;102.50;;;38.27;;
12707;SDS011;6418;50.824;4.718;2023-02-14T01:21:46;84.47;;;36.23;;
12707;SDS011;6418;50.824;4.718;2023-02-14T01:24:13;83.07;;;37.80;;
12707;SDS011;6418;50.824;4.718;2023-02-14T01:26:40;74.93;;;35.13;;
12707;SDS011;6418;50.824;4.718;2023-02-14T01:29:08;63.07;;;31.40;;
12707;SDS011;6418;50.824;4.718;2023-02-14T01:31:36;71.60;;;35.60;;
12707;SDS011;6418;50.824;4.718;2023-02-14T01:34:03;81.53;;;37.10;;
12707;SDS011;6418;50.824;4.718;2023-02-14T01:36:31;74.03;;;36.10;;
12707;SDS011;6418;50.824;4.718;2023-02-14T01:39:02;69.70;;;35.70;;
12707;SDS011;6418;50.824;4.718;2023-02-14T01:41:32;68.83;;;32.90;;
12707;SDS011;6418;50.824;4.718;2023-02-14T01:44:01;61.77;;;30.80;;
12707;SDS011;6418;50.824;4.718;2023-02-14T01:46:32;62.80;;;33.17;;
12707;SDS011;6418;50.824;4.718;2023-02-14T01:49:01;62.63;;;33.03;;
12707;SDS011;6418;50.824;4.718;2023-02-14T01:51:35;67.50;;;31.57;;
12707;SDS011;6418;50.824;4.718;2023-02-14T01:54:06;54.83;;;30.33;;
12707;SDS011;6418;50.824;4.718;2023-02-14T01:56:35;56.50;;;29.77;;
12707;SDS011;6418;50.824;4.718;2023-02-14T01:59:07;56.03;;;29.70;;
12707;SDS011;6418;50.824;4.718;2023-02-14T02:01:39;57.17;;;30.07;;
12707;SDS011;6418;50.824;4.718;2023-02-14T02:04:07;58.17;;;31.33;;
12707;SDS011;6418;50.824;4.718;2023-02-14T02:06:38;67.70;;;32.53;;
12707;SDS011;6418;50.824;4.718;2023-02-14T02:09:11;59.37;;;30.10;;
12707;SDS011;6418;50.824;4.718;2023-02-14T02:11:41;65.23;;;31.57;;
12707;SDS011;6418;50.824;4.718;2023-02-14T02:14:10;63.37;;;31.30;;
12707;SDS011;6418;50.824;4.718;2023-02-14T02:16:46;66.23;;;32.60;;
12707;SDS011;6418;50.824;4.718;2023-02-14T02:19:40;68.10;;;31.00;;
12707;SDS011;6418;50.824;4.718;2023-02-14T02:25:35;63.27;;;29.20;;
12707;SDS011;6418;50.824;4.718;2023-02-14T02:28:27;74.23;;;33.47;;
12707;SDS011;6418;50.824;4.718;2023-02-14T02:31:20;73.10;;;32.93;;
12707;SDS011;6418;50.824;4.718;2023-02-14T02:37:20;65.37;;;30.90;;
12707;SDS011;6418;50.824;4.718;2023-02-14T02:40:03;72.27;;;32.13;;
12707;SDS011;6418;50.824;4.718;2023-02-14T02:42:42;67.20;;;32.53;;
12707;SDS011;6418;50.824;4.718;2023-02-14T02:45:18;72.93;;;33.70;;
12707;SDS011;6418;50.824;4.718;2023-02-14T02:47:52;79.70;;;34.30;;
12707;SDS011;6418;50.824;4.718;2023-02-14T02:50:24;71.20;;;32.53;;
12707;SDS011;6418;50.824;4.718;2023-02-14T02:53:15;74.77;;;32.83;;
12707;SDS011;6418;50.824;4.718;2023-02-14T02:55:46;72.93;;;31.70;;
12707;SDS011;6418;50.824;4.718;2023-02-14T02:58:38;70.57;;;31.53;;
12707;SDS011;6418;50.824;4.718;2023-02-14T03:01:08;74.47;;;33.40;;
12707;SDS011;6418;50.824;4.718;2023-02-14T03:03:43;65.07;;;30.37;;
12707;SDS011;6418;50.824;4.718;2023-02-14T03:06:29;68.97;;;30.90;;
12707;SDS011;6418;50.824;4.718;2023-02-14T03:09:07;64.50;;;29.43;;
12707;SDS011;6418;50.824;4.718;2023-02-14T03:11:36;66.67;;;30.20;;
12707;SDS011;6418;50.824;4.718;2023-02-14T03:14:13;60.10;;;28.83;;
12707;SDS011;6418;50.824;4.718;2023-02-14T03:16:49;57.67;;;28.13;;
12707;SDS011;6418;50.824;4.718;2023-02-14T03:22:39;67.47;;;29.60;;
12707;SDS011;6418;50.824;4.718;2023-02-14T03:25:17;69.80;;;28.93;;
12707;SDS011;6418;50.824;4.718;2023-02-14T03:27:57;66.20;;;29.53;;
12707;SDS011;6418;50.824;4.718;2023-02-14T03:30:31;58.70;;;27.57;;
12707;SDS011;6418;50.824;4.718;2023-02-14T03:33:04;68.57;;;29.17;;
12707;SDS011;6418;50.824;4.718;2023-02-14T03:35:42;60.67;;;28.03;;
12707;SDS011;6418;50.824;4.718;2023-02-14T03:38:22;65.77;;;28.97;;
12707;SDS011;6418;50.824;4.718;2023-02-14T03:40:57;62.17;;;28.03;;
12707;SDS011;6418;50.824;4.718;2023-02-14T03:43:30;72.80;;;29.90;;
12707;SDS011;6418;50.824;4.718;2023-02-14T03:46:03;61.40;;;28.73;;
12707;SDS011;6418;50.824;4.718;2023-02-14T03:48:33;72.03;;;30.87;;
12707;SDS011;6418;50.824;4.718;2023-02-14T03:51:01;74.17;;;29.53;;
12707;SDS011;6418;50.824;4.718;2023-02-14T03:53:31;74.90;;;30.17;;
12707;SDS011;6418;50.824;4.718;2023-02-14T03:56:05;70.03;;;29.87;;
12707;SDS011;6418;50.824;4.718;2023-02-14T03:58:38;66.73;;;29.97;;
12707;SDS011;6418;50.824;4.718;2023-02-14T04:01:10;88.70;;;31.83;;
12707;SDS011;6418;50.824;4.718;2023-02-14T04:03:41;76.87;;;30.37;;
12707;SDS011;6418;50.824;4.718;2023-02-14T04:06:09;71.93;;;29.20;;
12707;SDS011;6418;50.824;4.718;2023-02-14T04:08:36;75.17;;;32.47;;
12707;SDS011;6418;50.824;4.718;2023-02-14T04:11:05;74.03;;;32.77;;
12707;SDS011;6418;50.824;4.718;2023-02-14T04:13:32;69.47;;;31.43;;
12707;SDS011;6418;50.824;4.718;2023-02-14T04:16:04;73.07;;;30.97;;
12707;SDS011;6418;50.824;4.718;2023-02-14T04:18:31;84.17;;;33.27;;
12707;SDS011;6418;50.824;4.718;2023-02-14T04:21:16;76.07;;;31.97;;
12707;SDS011;6418;50.824;4.718;2023-02-14T04:23:43;76.50;;;33.73;;
12707;SDS011;6418;50.824;4.718;2023-02-14T04:26:12;76.00;;;32.37;;
12707;SDS011;6418;50.824;4.718;2023-02-14T04:28:39;82.53;;;33.37;;
12707;SDS011;6418;50.824;4.718;2023-02-14T04:31:06;84.97;;;33.77;;
12707;SDS011;6418;50.824;4.718;2023-02-14T04:33:34;83.47;;;33.13;;
12707;SDS011;6418;50.824;4.718;2023-02-14T04:36:01;72.30;;;31.83;;
12707;SDS011;6418;50.824;4.718;2023-02-14T04:38:28;76.40;;;31.47;;
12707;SDS011;6418;50.824;4.718;2023-02-14T04:40:57;78.87;;;32.47;;
12707;SDS011;6418;50.824;4.718;2023-02-14T04:43:25;94.73;;;35.13;;
12707;SDS011;6418;50.824;4.718;2023-02-14T04:45:52;101.97;;;35.10;;
12707;SDS011;6418;50.824;4.718;2023-02-14T04:48:19;89.03;;;34.80;;
12707;SDS011;6418;50.824;4.718;2023-02-14T04:50:49;76.47;;;34.03;;
12707;SDS011;6418;50.824;4.718;2023-02-14T04:53:17;84.93;;;32.07;;
12707;SDS011;6418;50.824;4.718;2023-02-14T04:55:44;82.23;;;34.77;;
12707;SDS011;6418;50.824;4.718;2023-02-14T04:58:13;81.03;;;35.13;;
12707;SDS011;6418;50.824;4.718;2023-02-14T05:00:41;76.80;;;33.63;;
12707;SDS011;6418;50.824;4.718;2023-02-14T05:03:08;81.57;;;33.57;;
12707;SDS011;6418;50.824;4.718;2023-02-14T05:05:36;100.60;;;35.97;;
12707;SDS011;6418;50.824;4.718;2023-02-14T05:08:03;89.50;;;33.63;;
12707;SDS011;6418;50.824;4.718;2023-02-14T05:10:39;80.57;;;33.47;;
12707;SDS011;6418;50.824;4.718;2023-02-14T05:13:09;94.80;;;35.30;;
12707;SDS011;6418;50.824;4.718;2023-02-14T05:15:38;80.67;;;33.67;;
12707;SDS011;6418;50.824;4.718;2023-02-14T05:18:06;87.13;;;34.10;;
12707;SDS011;6418;50.824;4.718;2023-02-14T05:20:33;85.50;;;34.73;;
12707;SDS011;6418;50.824;4.718;2023-02-14T05:23:00;77.10;;;33.47;;
12707;SDS011;6418;50.824;4.718;2023-02-14T05:25:29;93.80;;;36.20;;
12707;SDS011;6418;50.824;4.718;2023-02-14T05:27:57;83.07;;;33.33;;
12707;SDS011;6418;50.824;4.718;2023-02-14T05:30:27;74.50;;;32.67;;
12707;SDS011;6418;50.824;4.718;2023-02-14T05:32:57;77.73;;;35.37;;
12707;SDS011;6418;50.824;4.718;2023-02-14T05:35:27;81.90;;;34.17;;
12707;SDS011;6418;50.824;4.718;2023-02-14T05:37:59;75.60;;;32.53;;
12707;SDS011;6418;50.824;4.718;2023-02-14T05:43:11;87.83;;;33.27;;
12707;SDS011;6418;50.824;4.718;2023-02-14T05:45:43;78.07;;;33.43;;
12707;SDS011;6418;50.824;4.718;2023-02-14T05:48:10;75.93;;;34.00;;
12707;SDS011;6418;50.824;4.718;2023-02-14T05:50:39;75.27;;;33.13;;
12707;SDS011;6418;50.824;4.718;2023-02-14T05:53:12;76.20;;;33.37;;
12707;SDS011;6418;50.824;4.718;2023-02-14T05:55:44;77.60;;;34.67;;
12707;SDS011;6418;50.824;4.718;2023-02-14T05:58:11;75.43;;;33.97;;
12707;SDS011;6418;50.824;4.718;2023-02-14T06:00:38;71.67;;;33.17;;
12707;SDS011;6418;50.824;4.718;2023-02-14T06:03:09;78.10;;;33.17;;
12707;SDS011;6418;50.824;4.718;2023-02-14T06:05:39;80.83;;;32.87;;
12707;SDS011;6418;50.824;4.718;2023-02-14T06:08:06;79.63;;;33.13;;
12707;SDS011;6418;50.824;4.718;2023-02-14T06:10:33;75.10;;;32.40;;
12707;SDS011;6418;50.824;4.718;2023-02-14T06:13:02;82.67;;;34.03;;
12707;SDS011;6418;50.824;4.718;2023-02-14T06:15:35;72.90;;;33.17;;
12707;SDS011;6418;50.824;4.718;2023-02-14T06:18:04;74.77;;;33.53;;
12707;SDS011;6418;50.824;4.718;2023-02-14T06:20:32;74.90;;;34.03;;
12707;SDS011;6418;50.824;4.718;2023-02-14T06:23:12;78.87;;;32.83;;
12707;SDS011;6418;50.824;4.718;2023-02-14T06:25:39;76.20;;;34.80;;
12707;SDS011;6418;50.824;4.718;2023-02-14T06:28:06;84.10;;;34.40;;
12707;SDS011;6418;50.824;4.718;2023-02-14T06:30:33;78.77;;;33.90;;
12707;SDS011;6418;50.824;4.718;2023-02-14T06:33:00;83.53;;;34.30;;
12707;SDS011;6418;50.824;4.718;2023-02-14T06:35:27;81.10;;;33.27;;
12707;SDS011;6418;50.824;4.718;2023-02-14T06:37:54;74.87;;;33.80;;
12707;SDS011;6418;50.824;4.718;2023-02-14T06:40:23;77.57;;;33.97;;
12707;SDS011;6418;50.824;4.718;2023-02-14T06:42:53;82.23;;;32.97;;
12707;SDS011;6418;50.824;4.718;2023-02-14T06:45:23;72.43;;;33.57;;
12707;SDS011;6418;50.824;4.718;2023-02-14T06:47:50;78.53;;;33.53;;
12707;SDS011;6418;50.824;4.718;2023-02-14T06:50:17;74.97;;;34.83;;
12707;SDS011;6418;50.824;4.718;2023-02-14T06:52:44;80.97;;;32.07;;
12707;SDS011;6418;50.824;4.718;2023-02-14T06:55:17;78.67;;;32.10;;
12707;SDS011;6418;50.824;4.718;2023-02-14T06:57:47;79.37;;;32.07;;
12707;SDS011;6418;50.824;4.718;2023-02-14T07:00:15;68.93;;;33.07;;
12707;SDS011;6418;50.824;4.718;2023-02-14T07:02:44;73.40;;;32.77;;
12707;SDS011;6418;50.824;4.718;2023-02-14T07:05:11;76.20;;;31.90;;
12707;SDS011;6418;50.824;4.718;2023-02-14T07:07:40;68.37;;;31.60;;
12707;SDS011;6418;50.824;4.718;2023-02-14T07:10:07;77.13;;;32.63;;
12707;SDS011;6418;50.824;4.718;2023-02-14T07:12:34;76.53;;;31.97;;
12707;SDS011;6418;50.824;4.718;2023-02-14T07:15:05;78.07;;;33.00;;
12707;SDS011;6418;50.824;4.718;2023-02-14T07:17:32;81.67;;;33.77;;
12707;SDS011;6418;50.824;4.718;2023-02-14T07:20:00;71.10;;;32.53;;
12707;SDS011;6418;50.824;4.718;2023-02-14T07:22:28;76.63;;;32.40;;
12707;SDS011;6418;50.824;4.718;2023-02-14T07:24:55;80.27;;;34.63;;
12707;SDS011;6418;50.824;4.718;2023-02-14T07:27:22;82.30;;;34.50;;
12707;SDS011;6418;50.824;4.718;2023-02-14T07:29:50;91.10;;;34.10;;
12707;SDS011;6418;50.824;4.718;2023-02-14T07:32:18;81.37;;;34.00;;
12707;SDS011;6418;50.824;4.718;2023-02-14T07:34:45;78.03;;;35.27;;
12707;SDS011;6418;50.824;4.718;2023-02-14T07:37:13;83.30;;;34.73;;
12707;SDS011;6418;50.824;4.718;2023-02-14T07:39:40;88.43;;;35.53;;
12707;SDS011;6418;50.824;4.718;2023-02-14T07:42:08;87.87;;;35.37;;
12707;SDS011;6418;50.824;4.718;2023-02-14T07:44:43;84.17;;;35.73;;
12707;SDS011;6418;50.824;4.718;2023-02-14T07:47:11;81.87;;;35.53;;
12707;SDS011;6418;50.824;4.718;2023-02-14T07:49:45;79.47;;;34.73;;
12707;SDS011;6418;50.824;4.718;2023-02-14T07:52:14;90.43;;;37.10;;
12707;SDS011;6418;50.824;4.718;2023-02-14T07:54:42;76.87;;;35.40;;
12707;SDS011;6418;50.824;4.718;2023-02-14T07:57:09;84.27;;;36.57;;
12707;SDS011;6418;50.824;4.718;2023-02-14T07:59:36;82.23;;;36.00;;
12707;SDS011;6418;50.824;4.718;2023-02-14T08:02:03;84.23;;;37.17;;
12707;SDS011;6418;50.824;4.718;2023-02-14T08:04:32;95.40;;;37.90;;
12707;SDS011;6418;50.824;4.718;2023-02-14T08:07:16;82.97;;;37.10;;
12707;SDS011;6418;50.824;4.718;2023-02-14T08:09:46;86.23;;;36.70;;
12707;SDS011;6418;50.824;4.718;2023-02-14T08:12:13;98.33;;;39.17;;
12707;SDS011;6418;50.824;4.718;2023-02-14T08:15:06;104.60;;;38.73;;
12707;SDS011;6418;50.824;4.718;2023-02-14T08:18:06;103.87;;;39.20;;
12707;SDS011;6418;50.824;4.718;2023-02-14T08:20:33;97.20;;;39.80;;
12707;SDS011;6418;50.824;4.718;2023-02-14T08:23:01;93.73;;;40.17;;
12707;SDS011;6418;50.824;4.718;2023-02-14T08:25:28;96.60;;;41.53;;
12707;SDS011;6418;50.824;4.718;2023-02-14T08:27:57;95.43;;;42.13;;
12707;SDS011;6418;50.824;4.718;2023-02-14T08:30:26;99.03;;;44.70;;
12707;SDS011;6418;50.824;4.718;2023-02-14T08:32:53;103.77;;;43.87;;
12707;SDS011;6418;50.824;4.718;2023-02-14T08:35:21;113.57;;;47.43;;
12707;SDS011;6418;50.824;4.718;2023-02-14T08:37:48;107.47;;;45.40;;
12707;SDS011;6418;50.824;4.718;2023-02-14T08:40:16;115.77;;;45.57;;
12707;SDS011;6418;50.824;4.718;2023-02-14T08:42:44;109.97;;;47.87;;
12707;SDS011;6418;50.824;4.718;2023-02-14T08:45:11;116.93;;;47.80;;
12707;SDS011;6418;50.824;4.718;2023-02-14T08:47:38;111.80;;;48.37;;
12707;SDS011;6418;50.824;4.718;2023-02-14T08:50:06;112.70;;;47.23;;
12707;SDS011;6418;50.824;4.718;2023-02-14T08:52:34;117.00;;;48.10;;
12707;SDS011;6418;50.824;4.718;2023-02-14T08:55:01;114.80;;;50.10;;
12707;SDS011;6418;50.824;4.718;2023-02-14T08:57:30;126.63;;;51.33;;
12707;SDS011;6418;50.824;4.718;2023-02-14T08:59:59;117.83;;;50.33;;
12707;SDS011;6418;50.824;4.718;2023-02-14T09:02:26;120.50;;;52.23;;
12707;SDS011;6418;50.824;4.718;2023-02-14T09:04:53;114.57;;;51.27;;
12707;SDS011;6418;50.824;4.718;2023-02-14T09:07:20;120.53;;;51.73;;
12707;SDS011;6418;50.824;4.718;2023-02-14T09:09:47;117.03;;;50.70;;
12707;SDS011;6418;50.824;4.718;2023-02-14T09:12:14;112.17;;;49.27;;
12707;SDS011;6418;50.824;4.718;2023-02-14T09:14:43;111.47;;;51.37;;
12707;SDS011;6418;50.824;4.718;2023-02-14T09:17:10;113.73;;;50.43;;
12707;SDS011;6418;50.824;4.718;2023-02-14T09:19:38;107.63;;;49.53;;
12707;SDS011;6418;50.824;4.718;2023-02-14T09:22:05;118.40;;;50.57;;
12707;SDS011;6418;50.824;4.718;2023-02-14T09:24:35;108.77;;;48.53;;
12707;SDS011;6418;50.824;4.718;2023-02-14T09:27:03;96.57;;;47.57;;
12707;SDS011;6418;50.824;4.718;2023-02-14T09:29:30;102.17;;;47.30;;
12707;SDS011;6418;50.824;4.718;2023-02-14T09:31:59;110.20;;;49.03;;
12707;SDS011;6418;50.824;4.718;2023-02-14T09:34:27;105.17;;;49.37;;
12707;SDS011;6418;50.824;4.718;2023-02-14T09:36:55;95.60;;;45.33;;
12707;SDS011;6418;50.824;4.718;2023-02-14T09:39:39;91.60;;;46.50;;
12707;SDS011;6418;50.824;4.718;2023-02-14T09:42:14;100.17;;;47.63;;
12707;SDS011;6418;50.824;4.718;2023-02-14T09:45:05;89.53;;;46.60;;
12707;SDS011;6418;50.824;4.718;2023-02-14T09:47:39;86.33;;;45.40;;
12707;SDS011;6418;50.824;4.718;2023-02-14T09:50:12;91.80;;;44.57;;
12707;SDS011;6418;50.824;4.718;2023-02-14T09:52:45;86.87;;;46.20;;
12707;SDS011;6418;50.824;4.718;2023-02-14T09:55:14;87.57;;;46.03;;
12707;SDS011;6418;50.824;4.718;2023-02-14T09:57:44;87.43;;;45.33;;
12707;SDS011;6418;50.824;4.718;2023-02-14T10:00:28;91.13;;;45.13;;
12707;SDS011;6418;50.824;4.718;2023-02-14T10:03:06;77.00;;;44.30;;
12707;SDS011;6418;50.824;4.718;2023-02-14T10:05:44;79.70;;;42.53;;
12707;SDS011;6418;50.824;4.718;2023-02-14T10:08:22;87.23;;;44.27;;
12707;SDS011;6418;50.824;4.718;2023-02-14T10:11:00;85.63;;;44.13;;
12707;SDS011;6418;50.824;4.718;2023-02-14T10:13:32;87.73;;;45.60;;
12707;SDS011;6418;50.824;4.718;2023-02-14T10:16:07;75.03;;;41.03;;
12707;SDS011;6418;50.824;4.718;2023-02-14T10:18:41;81.13;;;42.73;;
12707;SDS011;6418;50.824;4.718;2023-02-14T10:21:15;71.57;;;39.17;;
12707;SDS011;6418;50.824;4.718;2023-02-14T10:23:49;76.70;;;41.30;;
12707;SDS011;6418;50.824;4.718;2023-02-14T10:26:23;71.77;;;39.57;;
12707;SDS011;6418;50.824;4.718;2023-02-14T10:28:53;74.87;;;38.87;;
12707;SDS011;6418;50.824;4.718;2023-02-14T10:31:22;66.63;;;37.63;;
12707;SDS011;6418;50.824;4.718;2023-02-14T10:33:55;65.97;;;37.80;;
12707;SDS011;6418;50.824;4.718;2023-02-14T10:36:35;67.80;;;37.70;;
12707;SDS011;6418;50.824;4.718;2023-02-14T10:39:16;59.87;;;36.17;;
12707;SDS011;6418;50.824;4.718;2023-02-14T10:42:03;65.73;;;38.17;;
12707;SDS011;6418;50.824;4.718;2023-02-14T10:44:44;65.47;;;36.37;;
12707;SDS011;6418;50.824;4.718;2023-02-14T10:47:22;63.53;;;36.37;;
12707;SDS011;6418;50.824;4.718;2023-02-14T10:50:00;61.17;;;33.70;;
12707;SDS011;6418;50.824;4.718;2023-02-14T10:52:35;59.60;;;33.50;;
12707;SDS011;6418;50.824;4.718;2023-02-14T10:55:09;55.90;;;31.60;;
12707;SDS011;6418;50.824;4.718;2023-02-14T10:57:41;57.67;;;32.37;;
12707;SDS011;6418;50.824;4.718;2023-02-14T11:00:16;57.50;;;33.70;;
12707;SDS011;6418;50.824;4.718;2023-02-14T11:02:51;52.20;;;31.80;;
12707;SDS011;6418;50.824;4.718;2023-02-14T11:05:25;51.03;;;30.17;;
12707;SDS011;6418;50.824;4.718;2023-02-14T11:07:57;51.80;;;31.10;;
12707;SDS011;6418;50.824;4.718;2023-02-14T11:10:25;48.73;;;29.40;;
12707;SDS011;6418;50.824;4.718;2023-02-14T11:12:55;47.70;;;28.67;;
12707;SDS011;6418;50.824;4.718;2023-02-14T11:15:23;44.23;;;27.30;;
12707;SDS011;6418;50.824;4.718;2023-02-14T11:20:47;42.47;;;25.47;;
12707;SDS011;6418;50.824;4.718;2023-02-14T11:23:25;43.43;;;25.27;;
12707;SDS011;6418;50.824;4.718;2023-02-14T11:25:53;43.10;;;25.07;;
12707;SDS011;6418;50.824;4.718;2023-02-14T11:28:24;38.60;;;22.43;;
12707;SDS011;6418;50.824;4.718;2023-02-14T11:30:55;41.53;;;23.10;;
12707;SDS011;6418;50.824;4.718;2023-02-14T11:36:08;37.07;;;21.10;;
12707;SDS011;6418;50.824;4.718;2023-02-14T11:38:37;37.13;;;21.37;;
12707;SDS011;6418;50.824;4.718;2023-02-14T11:41:05;38.63;;;22.23;;
12707;SDS011;6418;50.824;4.718;2023-02-14T11:43:34;35.93;;;21.07;;
12707;SDS011;6418;50.824;4.718;2023-02-14T11:46:06;35.67;;;20.43;;
12707;SDS011;6418;50.824;4.718;2023-02-14T11:48:39;37.73;;;20.73;;
12707;SDS011;6418;50.824;4.718;2023-02-14T11:51:26;36.47;;;20.50;;
12707;SDS011;6418;50.824;4.718;2023-02-14T11:53:56;36.30;;;18.90;;
12707;SDS011;6418;50.824;4.718;2023-02-14T11:56:42;35.57;;;20.33;;
12707;SDS011;6418;50.824;4.718;2023-02-14T11:59:13;37.00;;;20.93;;
12707;SDS011;6418;50.824;4.718;2023-02-14T12:01:50;39.57;;;20.53;;
12707;SDS011;6418;50.824;4.718;2023-02-14T12:04:18;34.13;;;19.70;;
12707;SDS011;6418;50.824;4.718;2023-02-14T12:06:49;35.83;;;19.90;;
12707;SDS011;6418;50.824;4.718;2023-02-14T12:09:23;34.43;;;19.07;;
12707;SDS011;6418;50.824;4.718;2023-02-14T12:11:53;35.27;;;19.83;;
12707;SDS011;6418;50.824;4.718;2023-02-14T12:14:22;35.47;;;20.23;;
12707;SDS011;6418;50.824;4.718;2023-02-14T12:16:51;36.30;;;20.37;;
12707;SDS011;6418;50.824;4.718;2023-02-14T12:19:28;37.37;;;21.57;;
12707;SDS011;6418;50.824;4.718;2023-02-14T12:22:02;37.67;;;20.03;;
12707;SDS011;6418;50.824;4.718;2023-02-14T12:24:31;35.23;;;20.37;;
12707;SDS011;6418;50.824;4.718;2023-02-14T12:27:08;35.50;;;20.10;;
12707;SDS011;6418;50.824;4.718;2023-02-14T12:29:43;32.87;;;19.47;;
12707;SDS011;6418;50.824;4.718;2023-02-14T12:32:15;35.23;;;20.00;;
12707;SDS011;6418;50.824;4.718;2023-02-14T12:34:46;33.07;;;19.47;;
12707;SDS011;6418;50.824;4.718;2023-02-14T12:37:24;33.07;;;18.50;;
12707;SDS011;6418;50.824;4.718;2023-02-14T12:40:02;36.70;;;19.67;;
12707;SDS011;6418;50.824;4.718;2023-02-14T12:42:46;34.80;;;18.57;;
12707;SDS011;6418;50.824;4.718;2023-02-14T12:45:20;32.43;;;19.03;;
12707;SDS011;6418;50.824;4.718;2023-02-14T12:47:51;34.37;;;17.93;;
12707;SDS011;6418;50.824;4.718;2023-02-14T12:50:33;33.57;;;18.87;;
12707;SDS011;6418;50.824;4.718;2023-02-14T12:55:57;33.90;;;19.30;;
12707;SDS011;6418;50.824;4.718;2023-02-14T12:58:43;34.97;;;19.93;;
12707;SDS011;6418;50.824;4.718;2023-02-14T13:01:23;34.17;;;19.37;;
12707;SDS011;6418;50.824;4.718;2023-02-14T13:04:03;32.10;;;18.90;;
12707;SDS011;6418;50.824;4.718;2023-02-14T13:06:45;34.07;;;18.50;;
12707;SDS011;6418;50.824;4.718;2023-02-14T13:09:21;32.37;;;18.90;;
12707;SDS011;6418;50.824;4.718;2023-02-14T13:11:58;32.07;;;18.97;;
12707;SDS011;6418;50.824;4.718;2023-02-14T13:14:39;35.53;;;19.37;;
12707;SDS011;6418;50.824;4.718;2023-02-14T13:17:19;33.47;;;18.70;;
12707;SDS011;6418;50.824;4.718;2023-02-14T13:19:53;32.70;;;18.63;;
12707;SDS011;6418;50.824;4.718;2023-02-14T13:22:27;33.60;;;18.73;;
12707;SDS011;6418;50.824;4.718;2023-02-14T13:24:59;36.90;;;18.73;;
12707;SDS011;6418;50.824;4.718;2023-02-14T13:27:30;32.13;;;18.10;;
12707;SDS011;6418;50.824;4.718;2023-02-14T13:30:00;34.10;;;20.07;;
12707;SDS011;6418;50.824;4.718;2023-02-14T13:32:32;32.10;;;18.87;;
12707;SDS011;6418;50.824;4.718;2023-02-14T13:35:04;35.47;;;18.77;;
12707;SDS011;6418;50.824;4.718;2023-02-14T13:37:32;31.67;;;18.70;;
12707;SDS011;6418;50.824;4.718;2023-02-14T13:40:03;33.70;;;18.67;;
12707;SDS011;6418;50.824;4.718;2023-02-14T13:42:49;32.17;;;18.37;;
12707;SDS011;6418;50.824;4.718;2023-02-14T13:48:16;35.30;;;18.50;;
12707;SDS011;6418;50.824;4.718;2023-02-14T13:50:47;34.03;;;18.47;;
12707;SDS011;6418;50.824;4.718;2023-02-14T13:53:27;34.70;;;18.27;;
12707;SDS011;6418;50.824;4.718;2023-02-14T13:56:02;33.33;;;18.30;;
12707;SDS011;6418;50.824;4.718;2023-02-14T13:58:31;35.00;;;19.33;;
12707;SDS011;6418;50.824;4.718;2023-02-14T14:00:59;38.00;;;19.90;;
12707;SDS011;6418;50.824;4.718;2023-02-14T14:03:57;32.27;;;17.50;;
12707;SDS011;6418;50.824;4.718;2023-02-14T14:06:26;32.67;;;18.23;;
12707;SDS011;6418;50.824;4.718;2023-02-14T14:08:53;35.80;;;19.43;;
12707;SDS011;6418;50.824;4.718;2023-02-14T14:14:33;31.87;;;18.37;;
12707;SDS011;6418;50.824;4.718;2023-02-14T14:17:16;31.90;;;18.43;;
12707;SDS011;6418;50.824;4.718;2023-02-14T14:19:45;32.00;;;19.20;;
12707;SDS011;6418;50.824;4.718;2023-02-14T14:22:13;32.80;;;18.73;;
12707;SDS011;6418;50.824;4.718;2023-02-14T14:24:49;32.43;;;18.83;;
12707;SDS011;6418;50.824;4.718;2023-02-14T14:27:22;32.87;;;18.57;;
12707;SDS011;6418;50.824;4.718;2023-02-14T14:29:52;31.57;;;18.13;;
12707;SDS011;6418;50.824;4.718;2023-02-14T14:32:26;33.20;;;18.60;;
12707;SDS011;6418;50.824;4.718;2023-02-14T14:34:56;30.20;;;18.20;;
12707;SDS011;6418;50.824;4.718;2023-02-14T14:37:24;33.53;;;19.07;;
12707;SDS011;6418;50.824;4.718;2023-02-14T14:39:54;33.00;;;18.57;;
12707;SDS011;6418;50.824;4.718;2023-02-14T14:42:23;31.83;;;17.27;;
12707;SDS011;6418;50.824;4.718;2023-02-14T14:44:52;32.80;;;18.17;;
12707;SDS011;6418;50.824;4.718;2023-02-14T14:47:22;31.07;;;17.20;;
12707;SDS011;6418;50.824;4.718;2023-02-14T14:49:52;32.87;;;16.60;;
12707;SDS011;6418;50.824;4.718;2023-02-14T14:52:26;33.17;;;17.67;;
12707;SDS011;6418;50.824;4.718;2023-02-14T14:54:57;31.17;;;17.07;;
12707;SDS011;6418;50.824;4.718;2023-02-14T14:57:24;31.33;;;17.30;;
12707;SDS011;6418;50.824;4.718;2023-02-14T15:00:03;34.00;;;18.33;;
12707;SDS011;6418;50.824;4.718;2023-02-14T15:02:33;32.33;;;18.37;;
12707;SDS011;6418;50.824;4.718;2023-02-14T15:05:10;33.10;;;17.57;;
12707;SDS011;6418;50.824;4.718;2023-02-14T15:07:48;32.13;;;17.33;;
12707;SDS011;6418;50.824;4.718;2023-02-14T15:10:22;32.37;;;17.67;;
12707;SDS011;6418;50.824;4.718;2023-02-14T15:12:50;30.90;;;17.37;;
12707;SDS011;6418;50.824;4.718;2023-02-14T15:15:35;32.80;;;16.80;;
12707;SDS011;6418;50.824;4.718;2023-02-14T15:18:05;31.30;;;17.17;;
12707;SDS011;6418;50.824;4.718;2023-02-14T15:20:34;32.87;;;18.50;;
12707;SDS011;6418;50.824;4.718;2023-02-14T15:23:01;32.03;;;17.97;;
12707;SDS011;6418;50.824;4.718;2023-02-14T15:25:30;34.70;;;18.53;;